createdAt,value
2022-08-02T00:00:22.468Z,101942.44
2022-08-02T00:02:52.237Z,101935.84
2022-08-02T00:05:22.027Z,101936.43
2022-08-02T00:07:51.789Z,101938.25
2022-08-02T00:10:21.559Z,101941.93
2022-08-02T00:12:51.645Z,101941.93
2022-08-02T00:15:23.098Z,101934.47
2022-08-02T00:17:52.871Z,101933.98
2022-08-02T00:20:22.623Z,101933.06
2022-08-02T00:22:52.433Z,101940.95
2022-08-02T00:25:22.262Z,101939.95
2022-08-02T00:27:52.327Z,101941.45
2022-08-02T00:30:22.061Z,101935.78
2022-08-02T00:32:51.831Z,101931.34
2022-08-02T00:35:21.664Z,101927.01
2022-08-02T00:37:51.568Z,101930.61
2022-08-02T00:40:23.725Z,101930.92
2022-08-02T00:43:06.892Z,101934.48
2022-08-02T00:46:01.980Z,101930.42
2022-08-02T00:48:14.782Z,101934.59
2022-08-02T00:50:44.548Z,101929.00
2022-08-02T00:53:14.330Z,101926.08
2022-08-02T00:55:44.455Z,101924.17
2022-08-02T00:58:14.217Z,101923.78
2022-08-02T01:00:44.051Z,101919.94
2022-08-02T01:03:13.933Z,101917.27
2022-08-02T01:06:09.145Z,101915.47
2022-08-02T01:08:15.697Z,101911.80
2022-08-02T01:10:45.736Z,101913.17
2022-08-02T01:13:15.771Z,101909.48
2022-08-02T01:15:48.847Z,101912.19
2022-08-02T01:18:21.640Z,101918.80
2022-08-02T01:21:00.583Z,101894.30
2022-08-02T01:23:58.718Z,101894.30
2022-08-02T01:26:39.972Z,101909.22
2022-08-02T01:29:21.608Z,101905.20
2022-08-02T01:32:09.444Z,101907.95
2022-08-02T01:34:48.778Z,101901.91
2022-08-02T01:37:21.582Z,101901.91
2022-08-02T01:39:54.680Z,101906.34
2022-08-02T01:42:27.887Z,101897.16
2022-08-02T01:45:00.007Z,101894.95
2022-08-02T01:47:36.040Z,101890.67
2022-08-02T01:50:09.950Z,101888.67
2022-08-02T01:52:42.766Z,101888.14
2022-08-02T01:55:22.919Z,101884.09
2022-08-02T01:57:57.416Z,101879.19
2022-08-02T02:00:30.273Z,101879.19
2022-08-02T02:03:01.787Z,101881.30
2022-08-02T02:05:33.257Z,101882.25
2022-08-02T02:08:06.743Z,101881.08
2022-08-02T02:10:39.668Z,101879.09
2022-08-02T02:13:12.707Z,101872.55
2022-08-02T02:15:48.154Z,101869.55
2022-08-02T02:18:20.922Z,101867.40
2022-08-02T02:20:51.628Z,101858.80
2022-08-02T02:23:25.952Z,101860.61
2022-08-02T02:25:55.870Z,101857.23
2022-08-02T02:28:30.187Z,101860.87
2022-08-02T02:31:11.696Z,101865.73
2022-08-02T02:33:53.328Z,101864.37
2022-08-02T02:36:23.958Z,101862.00
2022-08-02T02:38:56.057Z,101853.57
2022-08-02T02:41:27.043Z,101858.86
2022-08-02T02:44:02.143Z,101862.50
2022-08-02T02:46:33.004Z,101851.97
2022-08-02T02:49:03.700Z,101853.69
2022-08-02T02:51:34.329Z,101855.62
2022-08-02T02:54:31.069Z,101852.04
2022-08-02T02:56:36.697Z,101849.70
2022-08-02T02:59:08.894Z,101844.34
2022-08-02T03:01:57.120Z,101843.41
2022-08-02T03:04:14.963Z,101845.80
2022-08-02T03:06:45.085Z,101841.44
2022-08-02T03:09:15.317Z,101833.89
2022-08-02T03:11:45.910Z,101834.34
2022-08-02T03:14:15.809Z,101832.39
2022-08-02T03:16:47.751Z,101834.80
2022-08-02T03:19:18.951Z,101838.93
2022-08-02T03:21:57.422Z,101841.20
2022-08-02T03:24:27.711Z,101841.03
2022-08-02T03:26:53.087Z,101843.80
2022-08-02T03:29:23.154Z,101850.70
2022-08-02T03:31:53.189Z,101843.05
2022-08-02T03:34:23.999Z,101842.55
2022-08-02T03:36:56.960Z,101838.91
2022-08-02T03:39:27.984Z,101832.32
2022-08-02T03:41:57.813Z,101831.25
2022-08-02T03:44:28.293Z,101822.23
2022-08-02T03:46:58.908Z,101827.97
2022-08-02T03:49:32.083Z,101822.23
2022-08-02T03:52:02.960Z,101822.23
2022-08-02T03:54:34.673Z,101823.30
2022-08-02T03:57:09.628Z,101826.03
2022-08-02T03:59:47.245Z,101824.31
2022-08-02T04:02:16.742Z,101819.42
2022-08-02T04:04:46.583Z,101824.88
2022-08-02T04:07:18.539Z,101824.62
2022-08-02T04:09:48.125Z,101818.72
2022-08-02T04:12:17.889Z,101825.66
2022-08-02T04:14:48.302Z,101804.45
2022-08-02T04:17:20.723Z,101804.45
2022-08-02T04:19:53.906Z,101808.91
2022-08-02T04:22:32.179Z,101812.91
2022-08-02T04:25:06.109Z,101812.98
2022-08-02T04:27:50.929Z,101821.30
2022-08-02T04:30:11.347Z,101823.39
2022-08-02T04:32:41.747Z,101821.81
2022-08-02T04:35:19.202Z,101823.92
2022-08-02T04:38:05.805Z,101830.89
2022-08-02T04:40:17.747Z,101825.69
2022-08-02T04:42:47.584Z,101828.19
2022-08-02T04:45:18.623Z,101827.74
2022-08-02T04:48:01.961Z,101829.58
2022-08-02T04:50:20.902Z,101825.10
2022-08-02T04:52:50.671Z,101822.67
2022-08-02T04:55:20.434Z,101815.88
2022-08-02T04:57:58.172Z,101815.04
2022-08-02T05:00:29.698Z,101816.90
2022-08-02T05:03:00.293Z,101819.79
2022-08-02T05:05:30.299Z,101824.92
2022-08-02T05:08:00.164Z,101822.85
2022-08-02T05:10:29.721Z,101821.64
2022-08-02T05:12:59.499Z,101815.78
2022-08-02T05:15:33.012Z,101807.59
2022-08-02T05:18:00.436Z,101814.87
2022-08-02T05:20:30.266Z,101797.72
2022-08-02T05:23:00.040Z,101797.72
2022-08-02T05:25:29.881Z,101809.03
2022-08-02T05:28:00.036Z,101809.34
2022-08-02T05:30:29.807Z,101808.07
2022-08-02T05:32:59.640Z,101805.25
2022-08-02T05:35:29.484Z,101809.16
2022-08-02T05:37:59.249Z,101802.52
2022-08-02T05:40:28.855Z,101800.91
2022-08-02T05:42:58.652Z,101794.47
2022-08-02T05:45:28.976Z,101782.66
2022-08-02T05:47:58.788Z,101781.05
2022-08-02T05:50:28.954Z,101788.58
2022-08-02T05:53:01.765Z,101782.05
2022-08-02T05:55:37.374Z,101793.46
2022-08-02T05:58:21.780Z,101800.53
2022-08-02T06:00:53.248Z,101801.36
2022-08-02T06:03:28.931Z,101791.95
2022-08-02T06:06:10.388Z,101799.22
2022-08-02T06:08:47.516Z,101802.73
2022-08-02T06:11:17.613Z,101801.35
2022-08-02T06:13:47.922Z,101785.08
2022-08-02T06:16:31.603Z,101785.08
2022-08-02T06:18:50.451Z,101801.69
2022-08-02T06:22:33.326Z,101803.97
2022-08-02T06:23:58.763Z,101795.73
2022-08-02T06:26:26.648Z,101795.73
2022-08-02T06:28:58.775Z,101798.39
2022-08-02T06:31:28.550Z,101798.39
2022-08-02T06:33:58.679Z,101766.15
2022-08-02T06:36:37.000Z,101766.15
2022-08-02T06:39:23.369Z,101789.75
2022-08-02T06:41:55.233Z,101793.84
2022-08-02T06:47:11.065Z,101774.97
2022-08-02T06:49:52.486Z,101759.80
2022-08-02T06:52:03.577Z,101759.80
2022-08-02T06:54:35.301Z,101786.47
2022-08-02T06:57:05.416Z,101790.56
2022-08-02T06:59:35.540Z,101767.66
2022-08-02T07:02:05.617Z,101767.66
2022-08-02T07:04:35.758Z,101771.39
2022-08-02T07:07:05.563Z,101756.50
2022-08-02T07:09:35.640Z,101761.14
2022-08-02T07:12:06.500Z,101761.14
2022-08-02T07:14:36.268Z,101758.21
2022-08-02T07:17:06.055Z,101758.21
2022-08-02T07:19:37.913Z,101766.41
2022-08-02T07:22:07.481Z,101767.17
2022-08-02T07:24:38.203Z,101773.73
2022-08-02T07:27:11.667Z,101768.27
2022-08-02T07:29:45.048Z,101748.81
2022-08-02T07:32:12.969Z,101748.81
2022-08-02T07:34:43.076Z,101748.84
2022-08-02T07:37:26.250Z,101741.13
2022-08-02T07:39:45.806Z,101741.13
2022-08-02T07:42:17.230Z,101757.11
2022-08-02T07:44:49.202Z,101753.30
2022-08-02T07:47:18.945Z,101758.03
2022-08-02T07:49:48.722Z,101755.07
2022-08-02T07:52:19.258Z,101754.41
2022-08-02T07:54:49.509Z,101752.22
2022-08-02T07:57:20.961Z,101748.81
2022-08-02T07:59:51.620Z,101748.81
2022-08-02T08:02:21.394Z,101752.09
2022-08-02T08:04:51.075Z,101730.12
2022-08-02T08:07:21.306Z,101730.12
2022-08-02T08:09:53.637Z,101746.33
2022-08-02T08:12:22.325Z,101746.27
2022-08-02T08:14:52.349Z,101735.90
2022-08-02T08:17:22.195Z,101733.17
2022-08-02T08:19:52.980Z,101731.13
2022-08-02T08:22:23.328Z,101732.36
2022-08-02T08:24:53.124Z,101731.16
2022-08-02T08:27:23.484Z,101729.19
2022-08-02T08:29:53.581Z,101717.84
2022-08-02T08:32:23.668Z,101726.66
2022-08-02T08:34:53.679Z,101718.88
2022-08-02T08:37:23.833Z,101727.19
2022-08-02T08:39:58.192Z,101719.97
2022-08-02T08:42:25.768Z,101718.94
2022-08-02T08:44:58.688Z,101724.64
2022-08-02T08:47:33.952Z,101703.83
2022-08-02T08:50:18.036Z,101703.83
2022-08-02T08:52:45.827Z,101723.39
2022-08-02T08:55:16.660Z,101718.30
2022-08-02T08:57:47.168Z,101722.73
2022-08-02T09:00:18.800Z,101723.73
2022-08-02T09:02:48.937Z,101724.56
2022-08-02T09:05:19.441Z,101712.39
2022-08-02T09:07:52.799Z,101712.39
2022-08-02T09:10:45.178Z,101728.11
2022-08-02T09:13:38.444Z,101731.66
2022-08-02T09:15:57.649Z,101730.14
2022-08-02T09:18:40.640Z,101739.61
2022-08-02T09:21:11.153Z,101734.61
2022-08-02T09:23:42.846Z,101735.09
2022-08-02T09:26:15.483Z,101727.89
2022-08-02T09:28:47.681Z,101724.91
2022-08-02T09:31:19.821Z,101725.09
2022-08-02T09:34:00.780Z,101725.09
2022-08-02T09:36:41.606Z,101725.40
2022-08-02T09:39:13.899Z,101724.22
2022-08-02T09:41:45.607Z,101726.14
2022-08-02T09:44:19.230Z,101729.73
2022-08-02T09:46:48.993Z,101722.06
2022-08-02T09:49:20.414Z,101725.50
2022-08-02T09:51:52.733Z,101725.06
2022-08-02T09:54:25.719Z,101726.16
2022-08-02T09:56:58.910Z,101720.02
2022-08-02T09:59:30.039Z,101723.77
2022-08-02T10:02:04.106Z,101720.14
2022-08-02T10:04:33.862Z,101723.59
2022-08-02T10:07:05.332Z,101719.48
2022-08-02T10:09:37.976Z,101726.33
2022-08-02T10:12:08.407Z,101724.27
2022-08-02T10:14:39.597Z,101703.80
2022-08-02T10:17:09.419Z,101703.80
2022-08-02T10:20:02.814Z,101719.20
2022-08-02T10:22:14.786Z,101714.38
2022-08-02T10:24:48.016Z,101722.61
2022-08-02T10:27:22.239Z,101717.50
2022-08-02T10:29:55.972Z,101717.95
2022-08-02T10:32:31.401Z,101722.62
2022-08-02T10:35:20.166Z,101720.98
2022-08-02T10:37:42.209Z,101713.16
2022-08-02T10:40:14.157Z,101716.28
2022-08-02T10:42:48.772Z,101707.75
2022-08-02T10:45:20.390Z,101711.53
2022-08-02T10:48:10.418Z,101713.12
2022-08-02T10:50:52.872Z,101716.77
2022-08-02T10:53:33.910Z,101713.77
2022-08-02T10:56:06.492Z,101707.63
2022-08-02T10:58:37.945Z,101712.35
2022-08-02T11:01:13.741Z,101715.57
2022-08-02T11:03:46.771Z,101710.23
2022-08-02T11:06:25.145Z,101699.34
2022-08-02T11:08:48.051Z,101702.98
2022-08-02T11:11:19.752Z,101699.08
2022-08-02T11:14:07.140Z,101687.02
2022-08-02T11:16:59.213Z,101689.23
2022-08-02T11:19:29.201Z,101686.88
2022-08-02T11:22:25.238Z,101693.91
2022-08-02T11:24:51.058Z,101693.96
2022-08-02T11:27:22.428Z,101693.05
2022-08-02T11:29:52.182Z,101687.52
2022-08-02T11:32:31.107Z,101687.16
2022-08-02T11:34:56.081Z,101695.80
2022-08-02T11:37:36.808Z,101701.41
2022-08-02T11:40:19.435Z,101688.58
2022-08-02T11:42:45.582Z,101684.62
2022-08-02T11:45:21.348Z,101683.90
2022-08-02T11:47:50.642Z,101679.72
2022-08-02T11:50:29.853Z,101681.14
2022-08-02T11:52:55.904Z,101675.55
2022-08-02T11:55:32.633Z,101673.42
2022-08-02T11:58:05.876Z,101680.84
2022-08-02T12:00:36.974Z,101686.09
2022-08-02T12:03:08.347Z,101682.97
2022-08-02T12:06:05.276Z,101683.42
2022-08-02T12:08:09.968Z,101676.38
2022-08-02T12:10:42.782Z,101682.20
2022-08-02T12:13:12.537Z,101682.95
2022-08-02T12:15:47.326Z,101679.12
2022-08-02T12:18:37.137Z,101672.11
2022-08-02T12:21:24.427Z,101643.88
2022-08-02T12:23:57.171Z,101641.50
2022-08-02T12:26:25.597Z,101641.50
2022-08-02T12:29:01.376Z,101660.84
2022-08-02T12:31:55.628Z,101665.32
2022-08-02T12:34:20.748Z,101664.31
2022-08-02T12:37:07.237Z,101657.44
2022-08-02T12:39:44.693Z,101653.23
2022-08-02T12:42:17.045Z,101657.88
2022-08-02T12:44:55.490Z,101657.88
2022-08-02T12:47:25.621Z,101663.02
2022-08-02T12:50:30.991Z,101660.94
2022-08-02T12:53:12.588Z,101659.12
2022-08-02T12:55:59.830Z,101655.13
2022-08-02T12:58:22.652Z,101651.67
2022-08-02T13:01:00.937Z,101658.92
2022-08-02T13:04:07.847Z,101655.09
2022-08-02T13:06:12.196Z,101657.63
2022-08-02T13:08:34.556Z,101648.92
2022-08-02T13:11:04.379Z,101650.52
2022-08-02T13:13:34.583Z,101649.44
2022-08-02T13:16:06.835Z,101642.51
2022-08-02T13:18:36.764Z,101642.17
2022-08-02T13:21:08.224Z,101641.69
2022-08-02T13:23:54.859Z,101640.37
2022-08-02T13:26:13.091Z,101636.59
2022-08-02T13:28:42.910Z,101638.53
2022-08-02T13:31:35.491Z,101639.10
2022-08-02T13:33:43.834Z,101638.59
2022-08-02T13:36:13.538Z,101632.59
2022-08-02T13:38:43.286Z,101626.62
2022-08-02T13:41:13.745Z,101637.74
2022-08-02T13:43:54.910Z,101628.08
2022-08-02T13:46:15.374Z,101630.64
2022-08-02T13:48:46.818Z,101633.84
2022-08-02T13:51:16.649Z,101628.06
2022-08-02T13:53:46.410Z,101618.33
2022-08-02T13:56:16.007Z,101618.64
2022-08-02T13:58:46.225Z,101622.12
2022-08-02T14:01:16.098Z,101619.94
2022-08-02T14:04:07.496Z,101617.98
2022-08-02T14:06:17.138Z,101608.09
2022-08-02T14:08:47.176Z,101607.45
2022-08-02T14:11:16.971Z,101598.23
2022-08-02T14:13:46.776Z,101603.14
2022-08-02T14:16:16.546Z,101592.00
2022-08-02T14:18:46.300Z,101591.79
2022-08-02T14:21:15.942Z,101592.47
2022-08-02T14:23:50.297Z,101584.68
2022-08-02T14:26:27.259Z,101585.33
2022-08-02T14:28:49.912Z,101586.77
2022-08-02T14:31:19.790Z,101573.72
2022-08-02T14:33:49.356Z,101573.72
2022-08-02T14:36:27.513Z,101552.87
2022-08-02T14:38:50.585Z,101552.87
2022-08-02T14:41:20.585Z,101563.75
2022-08-02T14:44:05.363Z,101564.00
2022-08-02T14:46:41.262Z,101565.23
2022-08-02T14:49:12.218Z,101554.02
2022-08-02T14:51:43.661Z,101554.02
2022-08-02T14:54:14.744Z,101563.53
2022-08-02T14:56:44.650Z,101566.63
2022-08-02T14:59:16.093Z,101559.56
2022-08-02T15:01:45.900Z,101546.60
2022-08-02T15:04:15.747Z,101549.51
2022-08-02T15:06:45.644Z,101553.34
2022-08-02T15:09:15.542Z,101553.50
2022-08-02T15:11:47.704Z,101548.19
2022-08-02T15:14:21.895Z,101557.23
2022-08-02T15:16:58.740Z,101542.26
2022-08-02T15:19:21.839Z,101547.02
2022-08-02T15:21:54.563Z,101546.19
2022-08-02T15:24:22.830Z,101547.30
2022-08-02T15:26:53.431Z,101542.76
2022-08-02T15:29:23.266Z,101543.64
2022-08-02T15:31:53.030Z,101540.88
2022-08-02T15:34:22.873Z,101535.65
2022-08-02T15:36:52.347Z,101542.71
2022-08-02T15:39:22.101Z,101536.77
2022-08-02T15:41:52.153Z,101528.49
2022-08-02T15:44:21.987Z,101509.57
2022-08-02T15:46:51.859Z,101509.57
2022-08-02T15:49:24.315Z,101514.67
2022-08-02T15:51:55.069Z,101526.56
2022-08-02T15:54:24.843Z,101524.63
2022-08-02T15:56:54.746Z,101516.42
2022-08-02T15:59:24.285Z,101526.56
2022-08-02T16:01:54.107Z,101522.45
2022-08-02T16:04:23.913Z,101514.27
2022-08-02T16:06:53.665Z,101518.25
2022-08-02T16:09:23.201Z,101518.25
2022-08-02T16:11:52.963Z,101519.25
2022-08-02T16:14:22.730Z,101503.65
2022-08-02T16:16:52.326Z,101503.65
2022-08-02T16:19:47.850Z,101510.27
2022-08-02T16:21:56.298Z,101509.77
2022-08-02T16:24:26.832Z,101515.89
2022-08-02T16:26:56.599Z,101506.41
2022-08-02T16:29:26.359Z,101512.23
2022-08-02T16:31:56.135Z,101516.69
2022-08-02T16:34:25.898Z,101509.78
2022-08-02T16:36:55.463Z,101508.74
2022-08-02T16:39:25.503Z,101508.74
2022-08-02T16:41:55.270Z,101504.89
2022-08-02T16:44:27.644Z,101504.02
2022-08-02T16:46:56.742Z,101503.73
2022-08-02T16:50:06.387Z,101489.53
2022-08-02T16:51:59.967Z,101493.69
2022-08-02T16:54:29.959Z,101488.95
2022-08-02T16:56:59.724Z,101492.30
2022-08-02T16:59:34.042Z,101494.03
2022-08-02T17:02:11.750Z,101485.66
2022-08-02T17:04:34.843Z,101481.48
2022-08-02T17:07:11.075Z,101484.16
2022-08-02T17:10:03.456Z,101476.91
2022-08-02T17:12:16.067Z,101472.14
2022-08-02T17:14:55.400Z,101452.73
2022-08-02T17:17:15.821Z,101452.73
2022-08-02T17:19:48.004Z,101470.56
2022-08-02T17:22:17.783Z,101474.72
2022-08-02T17:24:48.401Z,101477.53
2022-08-02T17:27:18.285Z,101472.15
2022-08-02T17:29:49.788Z,101454.53
2022-08-02T17:32:19.550Z,101454.53
2022-08-02T17:34:59.804Z,101485.31
2022-08-02T17:37:20.786Z,101466.41
2022-08-02T17:39:52.171Z,101478.67
2022-08-02T17:42:23.265Z,101481.77
2022-08-02T17:45:01.041Z,101487.27
2022-08-02T17:47:30.894Z,101493.29
2022-08-02T17:49:59.763Z,101488.61
2022-08-02T17:52:51.022Z,101491.86
2022-08-02T17:55:03.372Z,101493.48
2022-08-02T17:57:55.565Z,101492.88
2022-08-02T18:00:08.527Z,101487.27
2022-08-02T18:02:38.363Z,101486.13
2022-08-02T18:05:11.853Z,101485.75
2022-08-02T18:07:43.288Z,101478.79
2022-08-02T18:10:11.912Z,101480.49
2022-08-02T18:12:41.970Z,101478.36
2022-08-02T18:15:14.509Z,101481.08
2022-08-02T18:17:44.125Z,101475.96
2022-08-02T18:20:15.936Z,101476.88
2022-08-02T18:22:45.699Z,101479.55
2022-08-02T18:25:36.373Z,101483.36
2022-08-02T18:27:48.351Z,101480.19
2022-08-02T18:30:21.673Z,101481.81
2022-08-02T18:33:59.446Z,101482.06
2022-08-02T18:35:23.637Z,101486.19
2022-08-02T18:37:57.231Z,101489.55
2022-08-02T18:40:26.080Z,101490.67
2022-08-02T18:42:56.066Z,101488.91
2022-08-02T18:45:36.888Z,101485.37
2022-08-02T18:47:57.413Z,101487.55
2022-08-02T18:50:31.674Z,101492.62
2022-08-02T18:53:00.544Z,101487.47
2022-08-02T18:56:03.286Z,101488.02
2022-08-02T18:58:18.632Z,101495.63
2022-08-02T19:00:33.297Z,101487.64
2022-08-02T19:03:03.300Z,101490.77
2022-08-02T19:05:52.287Z,101485.89
2022-08-02T19:08:06.349Z,101484.98
2022-08-02T19:10:38.484Z,101484.55
2022-08-02T19:13:17.566Z,101487.02
2022-08-02T19:15:42.428Z,101484.70
2022-08-02T19:18:13.744Z,101495.41
2022-08-02T19:20:48.162Z,101490.32
2022-08-02T19:23:15.046Z,101491.37
2022-08-02T19:25:50.453Z,101495.72
2022-08-02T19:28:26.415Z,101498.14
2022-08-02T19:30:49.618Z,101493.64
2022-08-02T19:36:01.370Z,101505.58
2022-08-02T19:38:25.868Z,101503.34
2022-08-02T19:40:56.201Z,101509.54
2022-08-02T19:44:22.840Z,101508.66
2022-08-02T19:45:58.168Z,101522.40
2022-08-02T19:48:28.284Z,101512.15
2022-08-02T19:51:01.062Z,101517.42
2022-08-02T19:53:47.460Z,101520.06
2022-08-02T19:56:03.314Z,101526.69
2022-08-02T19:58:34.442Z,101530.13
2022-08-02T20:01:05.045Z,101525.15
2022-08-02T20:03:51.127Z,101525.27
2022-08-02T20:06:10.186Z,101535.18
2022-08-02T20:08:45.325Z,101536.29
2022-08-02T20:11:14.961Z,101540.98
2022-08-02T20:13:47.097Z,101521.34
2022-08-02T20:16:20.903Z,101512.39
2022-08-02T20:18:47.960Z,101512.39
2022-08-02T20:21:34.504Z,101534.99
2022-08-02T20:23:49.291Z,101540.77
2022-08-02T20:26:20.066Z,101540.77
2022-08-02T20:28:51.703Z,101545.12
2022-08-02T20:31:21.475Z,101541.56
2022-08-02T20:33:55.943Z,101550.34
2022-08-02T20:36:22.796Z,101548.13
2022-08-02T20:38:52.621Z,101551.73
2022-08-02T20:41:37.135Z,101549.06
2022-08-02T20:43:56.096Z,101544.45
2022-08-02T20:46:26.275Z,101552.39
2022-08-02T20:48:59.512Z,101552.06
2022-08-02T20:51:33.313Z,101546.17
2022-08-02T20:53:58.965Z,101545.95
2022-08-02T20:56:29.186Z,101546.33
2022-08-02T20:59:03.766Z,101549.56
2022-08-02T21:01:36.984Z,101547.62
2022-08-02T21:04:02.524Z,101548.31
2022-08-02T21:06:33.992Z,101553.66
2022-08-02T21:09:03.756Z,101552.05
2022-08-02T21:11:36.041Z,101554.02
2022-08-02T21:14:09.239Z,101550.59
2022-08-02T21:16:39.065Z,101555.42
2022-08-02T21:19:09.816Z,101549.63
2022-08-02T21:21:41.047Z,101549.60
2022-08-02T21:24:12.489Z,101545.69
2022-08-02T21:26:42.283Z,101551.41
2022-08-02T21:29:13.780Z,101551.41
2022-08-02T21:31:44.252Z,101552.23
2022-08-02T21:34:26.575Z,101556.14
2022-08-02T21:36:47.769Z,101535.62
2022-08-02T21:39:17.245Z,101551.53
2022-08-02T21:41:47.464Z,101551.53
2022-08-02T21:44:18.860Z,101548.23
2022-08-02T21:46:50.439Z,101548.20
2022-08-02T21:49:26.960Z,101557.12
2022-08-02T21:51:54.414Z,101554.12
2022-08-02T21:54:24.251Z,101559.70
2022-08-02T21:56:54.696Z,101559.37
2022-08-02T21:59:25.219Z,101552.14
2022-08-02T22:01:57.769Z,101554.69
2022-08-02T22:04:27.828Z,101554.12
2022-08-02T22:06:57.962Z,101555.52
2022-08-02T22:09:43.312Z,101564.72
2022-08-02T22:12:00.017Z,101557.75
2022-08-02T22:14:29.776Z,101564.95
2022-08-02T22:16:59.615Z,101545.50
2022-08-02T22:19:29.745Z,101545.50
2022-08-02T22:22:00.378Z,101547.14
2022-08-02T22:24:30.579Z,101547.14
2022-08-02T22:27:00.469Z,101558.03
2022-08-02T22:29:31.929Z,101561.09
2022-08-02T22:32:02.666Z,101565.27
2022-08-02T22:34:51.167Z,101567.79
2022-08-02T22:37:05.761Z,101570.59
2022-08-02T22:39:36.095Z,101566.94
2022-08-02T22:42:07.369Z,101561.12
2022-08-02T22:44:37.104Z,101564.73
2022-08-02T22:49:37.897Z,101564.18
2022-08-02T22:52:06.218Z,101569.14
2022-08-02T22:54:36.388Z,101560.23
2022-08-02T22:57:06.513Z,101562.75
2022-08-02T22:58:57.124Z,101495.20
2022-08-02T22:59:39.672Z,101572.77
2022-08-02T23:02:11.103Z,101563.58
2022-08-02T23:04:40.990Z,101569.98
2022-08-02T23:07:10.817Z,101574.15
2022-08-02T23:09:40.586Z,101571.94
2022-08-02T23:12:12.063Z,101568.58
2022-08-02T23:14:42.119Z,101543.18
2022-08-02T23:17:29.798Z,101543.18
2022-08-02T23:19:59.335Z,101565.80
2022-08-02T23:22:32.347Z,101546.55
2022-08-02T23:25:02.280Z,101568.84
2022-08-02T23:27:33.015Z,101566.33
2022-08-02T23:30:03.092Z,101548.73
2022-08-02T23:32:33.144Z,101567.38
2022-08-02T23:35:02.622Z,101565.73
2022-08-02T23:38:00.351Z,101544.80
2022-08-02T23:40:05.459Z,101544.80
2022-08-02T23:42:35.217Z,101559.61
2022-08-02T23:45:05.123Z,101557.63
2022-08-02T23:47:34.890Z,101559.18
2022-08-02T23:50:07.153Z,101559.98
2022-08-02T23:52:36.920Z,101552.84
2022-08-02T23:55:08.609Z,101555.37
2022-08-02T23:57:38.421Z,101548.91
